메인 페이지
METAR-TAF:

METAR-TAF

공항 :

아폰수 페나 국제공항

쿠리치바, 파라나, 브라질

위도: 25-31S, 경도: 049-10W, 고도: 908m

현재 날씨관측

예보는 56분 전, 05:00시(UTC)에 발표되었습니다.
동남동4kt
온도 11°C
습도 94%
기압 1026 hPa
시정 10km 이상
고도 700ft 상공 흐림

METAR: SBCT 230500Z 11004KT 9999 OVC007 11/10 Q1026

시각: 02:56 (05:56 UTC)

예보

예보는 2 시간 56분 전, 03:00시(UTC)에 발표되었습니다.
예보 대상 시간: 23일 06시부터 24일 06시까지 (UTC)
동남동5kt
시정 10km 이상
고도 700ft 상공 흐림
확률 40%
23일 07시부터 23일 10시까지 (UTC)
시정: 4000m
고도 300ft 상공 흐림
박무
전환 중
23일 12시부터 23일 14시까지 (UTC)
8kt
고도 1200ft 상공 구름 많음
전환 중
23일 14시부터 23일 16시까지 (UTC)
고도 1500ft 상공 구름 많음
전환 중
23일 21시부터 23일 23시까지 (UTC)
고도 700ft 상공 구름 많음
고도 2400ft 상공 구름 많음

TAF: SBCT 230300Z 2306/2406 11005KT 9999 OVC007 TN09/2308Z TX20/2318Z PROB40 2307/2310 4000 BR OVC003 BECMG 2312/2314 09008KT BKN012 BECMG 2314/2316 BKN015 BECMG 2321/2323 BKN007 BKN024 RMK PER

4,000개 이상의 공항 관측 자료 및 예보 (METAR 및 TAF 보고).

지도상에서 검색 가능한 기상관측소가 노란 점과 빨간 점으로 표시되어 있습니다.

기상관측소 명을 보려면 표시 위로 마우스를 이동하세요.

날씨 관측과 예보를 보려면 클릭하세요.

지도 변경 : 확대하려면 엑스 표시가 있는 녹색 버튼, 축소하려면 빼기 표시가 있는 녹색 버튼, 다음 페이지의 지도를 보려면 녹색 화살표를 클릭하세요.


METAR-TAF: